Oceanic Odyssey — C6OZ3 — position and weather

sailwx.info

Track history (hours):
 
Tides and Currents Weather Stations Pressure Air Temp Water Temp Dewpoint Dewpoint Depression Visibility Wind Speed Wind Dir Waves Ship Positions

Oceanic Odyssey

Last reported at 2018-Apr-21 12:35 UTC. Time now 2018-May-21 15:18 UTC.
Position N 33°60' E 130°03'.
Warning: this ship's position is 30 days out of date.

Length 103 m; draft 4.5 m.

Type: Passenger vessel. MMSI: 309913000.

Date/timePositionNaut miles runAvg speedWind from/ knotsBaromVisibWave heightAir tempDewpointWater temp
2018-Apr-21 12:35N 33°60' E 130°03'113.4
2018-Apr-21 12:29N 33°60' E 130°05'613.2
2018-Apr-21 12:00N 34°01' E 130°12'713.3
2018-Apr-21 11:30N 34°02' E 130°20'713.4
2018-Apr-21 11:00N 34°03' E 130°28'613.0
2018-Apr-21 10:30N 34°04' E 130°36'612.6
2018-Apr-21 10:00N 34°04' E 130°44'612.4
2018-Apr-21 09:30N 34°02' E 130°51'5 9.8
2018-Apr-21 09:00N 33°57' E 130°52'4 7.4
2018-Apr-21 08:30N 33°55' E 130°56'2 4.5
2018-Apr-21 07:58N 33°57' E 130°57'0 0.0
2018-Apr-21 07:28N 33°57' E 130°57'0 0.0
2018-Apr-21 06:58N 33°57' E 130°57'0 0.0
2018-Apr-21 06:28N 33°57' E 130°57'0 0.0
2018-Apr-21 05:58N 33°57' E 130°57'0 0.0
2018-Apr-21 05:28N 33°57' E 130°57'0 0.0
2018-Apr-21 04:58N 33°57' E 130°57'0 0.0
2018-Apr-21 04:28N 33°57' E 130°57'0 0.0
2018-Apr-21 03:58N 33°57' E 130°57'0 0.0
2018-Apr-21 03:28N 33°57' E 130°57'0 0.0
2018-Apr-21 02:58N 33°57' E 130°57'0 0.0
2018-Apr-21 02:28N 33°57' E 130°57'0 0.0
2018-Apr-21 01:58N 33°57' E 130°57'0 0.0
2018-Apr-21 01:28N 33°57' E 130°57'0 0.0
2018-Apr-21 00:58N 33°57' E 130°57'0 0.0
2018-Apr-21 00:28N 33°57' E 130°57'0 0.0
2018-Apr-20 23:58N 33°57' E 130°57'0 0.0
2018-Apr-20 23:28N 33°57' E 130°57'0 0.0
2018-Apr-20 23:00N 33°57' E 130°57'2 4.0
2018-Apr-20 22:30N 33°58' E 130°59'4 8.6
2018-Apr-20 22:00N 33°57' E 131°03'4 7.6
2018-Apr-20 21:30N 33°55' E 131°07'4 8.9
2018-Apr-20 21:00N 33°52' E 131°12'4 8.9
2018-Apr-20 20:30N 33°51' E 131°17'4 9.0
2018-Apr-20 20:00N 33°50' E 131°22'4 8.8
2018-Apr-20 19:30N 33°49' E 131°27'4 8.8
2018-Apr-20 19:00N 33°48' E 131°33'5 9.3
2018-Apr-20 18:30N 33°47' E 131°38'5 9.6
2018-Apr-20 17:59N 33°46' E 131°44'5 9.5
2018-Apr-20 17:30N 33°45' E 131°49'5 9.2
2018-Apr-20 17:00N 33°44' E 131°55'5 9.1
2018-Apr-20 16:30N 33°43' E 132°00'5 9.3
2018-Apr-20 16:00N 33°42' E 132°06'5 8.8
2018-Apr-20 15:29N 33°43' E 132°11'11 9.8
2018-Apr-20 14:19N 33°46' E 132°24'4 9.8
2018-Apr-20 13:55N 33°50' E 132°27'410.0
2018-Apr-20 13:30N 33°53' E 132°29'6 8.8
2018-Apr-20 12:52N 33°59' E 132°32'3 6.8
2018-Apr-20 12:22N 34°01' E 132°29'410.7
2018-Apr-20 12:00N 34°04' E 132°25'5 9.7
2018-Apr-20 11:28N 34°08' E 132°22'5 9.8
2018-Apr-20 11:00N 34°12' E 132°20'5 9.8
2018-Apr-20 10:30N 34°17' E 132°21'4 8.6
2018-Apr-20 10:00N 34°20' E 132°26'3 0.4
2018-Apr-20 04:06N 34°21' E 132°28'0 0.2
2018-Apr-20 03:47N 34°21' E 132°28'1 3.9
2018-Apr-20 03:30N 34°20' E 132°28'5 9.1
2018-Apr-20 03:00N 34°19' E 132°23'1 2.2
2018-Apr-20 02:28N 34°19' E 132°21'0 0.0
2018-Apr-20 01:58N 34°19' E 132°21'0 0.0
2018-Apr-20 01:25N 34°19' E 132°21'0 0.0
2018-Apr-20 00:58N 34°19' E 132°21'0 0.0
2018-Apr-20 00:28N 34°19' E 132°21'0 0.0
2018-Apr-19 23:58N 34°19' E 132°21'0 0.0
2018-Apr-19 23:25N 34°19' E 132°21'0 0.0
2018-Apr-19 22:58N 34°19' E 132°21'0 0.0
2018-Apr-19 22:28N 34°19' E 132°21'0 0.0
2018-Apr-19 21:58N 34°19' E 132°21'0 0.0
2018-Apr-19 21:28N 34°19' E 132°21'0 0.0
2018-Apr-19 20:58N 34°19' E 132°21'0 0.0
2018-Apr-19 20:28N 34°19' E 132°21'0 0.0
2018-Apr-19 19:58N 34°19' E 132°21'0 1.0
2018-Apr-19 19:31N 34°19' E 132°21'4 7.7
2018-Apr-19 19:00N 34°15' E 132°21'712.6
2018-Apr-19 18:29N 34°08' E 132°22'613.3
2018-Apr-19 18:00N 34°03' E 132°26'612.0
2018-Apr-19 17:28N 34°03' E 132°34'613.5
2018-Apr-19 17:00N 34°06' E 132°41'68 9.2
2018-Apr-19 09:38N 34°24' E 133°60'311.0
2018-Apr-19 09:22N 34°22' E 134°03'1 0.1
2018-Apr-18 20:29N 34°22' E 134°03'3 3.4
2018-Apr-18 19:43N 34°23' E 134°00'1 3.8
2018-Apr-18 19:29N 34°23' E 133°59'11 0.4
2018-Apr-17 18:45N 34°25' E 134°12'14 8.8
2018-Apr-17 17:06N 34°27' E 134°30'1 8.8
2018-Apr-17 17:00N 34°28' E 134°31'4 9.1
2018-Apr-17 16:31N 34°29' E 134°36'4 9.0
2018-Apr-17 16:01N 34°31' E 134°41'5 8.8
2018-Apr-17 15:27N 34°33' E 134°46'4 8.7
2018-Apr-17 15:00N 34°35' E 134°50'4 9.0
2018-Apr-17 14:31N 34°36' E 134°55'5 9.4
2018-Apr-17 14:00N 34°38' E 135°01'5 9.2
2018-Apr-17 13:30N 34°36' E 135°06'4 8.4
2018-Apr-17 13:00N 34°38' E 135°11'3 5.7
2018-Apr-17 12:30N 34°41' E 135°11'0 0.3
2018-Apr-17 12:00N 34°41' E 135°11'0 0.0
2018-Apr-17 11:30N 34°41' E 135°11'0 0.0
2018-Apr-17 11:00N 34°41' E 135°11'0 0.0
2018-Apr-17 10:30N 34°41' E 135°11'0 0.0
2018-Apr-17 10:00N 34°41' E 135°11'0 0.0
2018-Apr-17 09:30N 34°41' E 135°11'0 0.0
2018-Apr-17 09:00N 34°41' E 135°11'0 0.0
2018-Apr-17 08:30N 34°41' E 135°11'0 0.0
2018-Apr-17 08:00N 34°41' E 135°11'0 0.0
2018-Apr-17 07:30N 34°41' E 135°11'0 0.0
2018-Apr-17 07:00N 34°41' E 135°11'0 0.0
2018-Apr-17 06:30N 34°41' E 135°11'0 0.0
2018-Apr-17 06:00N 34°41' E 135°11'0 0.0
2018-Apr-17 05:30N 34°41' E 135°11'0 0.0
2018-Apr-17 05:00N 34°41' E 135°11'0 0.0
2018-Apr-17 04:30N 34°41' E 135°11'0 0.0
2018-Apr-17 04:00N 34°41' E 135°11'0 0.0
2018-Apr-17 03:30N 34°41' E 135°11'0 0.0
2018-Apr-17 03:00N 34°41' E 135°11'0 0.0
2018-Apr-17 02:30N 34°41' E 135°11'0 0.0
2018-Apr-17 02:00N 34°41' E 135°11'0 0.0
2018-Apr-17 01:30N 34°41' E 135°11'0 0.0
2018-Apr-17 01:00N 34°41' E 135°11'0 0.0
2018-Apr-17 00:30N 34°41' E 135°11'0 0.0
2018-Apr-17 00:00N 34°41' E 135°11'0 0.0
2018-Apr-16 23:30N 34°41' E 135°11'0 0.0
2018-Apr-16 23:00N 34°41' E 135°11'0 0.0
2018-Apr-16 22:30N 34°41' E 135°11'0 0.0
2018-Apr-16 22:00N 34°41' E 135°11'0 0.0
2018-Apr-16 21:30N 34°41' E 135°11'1 1.7
2018-Apr-16 21:00N 34°40' E 135°12'4 7.5
2018-Apr-16 20:30N 34°37' E 135°10'3 5.5
2018-Apr-16 20:00N 34°35' E 135°07'4 8.8
2018-Apr-16 19:31N 34°36' E 135°02'4 8.1
2018-Apr-16 19:00N 34°36' E 134°57'611.0
2018-Apr-16 18:30N 34°34' E 134°51'5 9.3
2018-Apr-16 18:00N 34°32' E 134°46'5 9.3
2018-Apr-16 17:30N 34°30' E 134°41'4 8.9
2018-Apr-16 17:00N 34°29' E 134°36'4 8.3
2018-Apr-16 16:30N 34°27' E 134°31'4 9.0
2018-Apr-16 16:00N 34°25' E 134°26'5 9.1
2018-Apr-16 15:30N 34°24' E 134°21'6 9.3
2018-Apr-16 14:51N 34°24' E 134°13'3 9.3
2018-Apr-16 14:30N 34°25' E 134°10'76 3.1
2018-Apr-15 13:43N 34°05' E 132°41'314.4
2018-Apr-15 13:29N 34°04' E 132°37'1012.6
2018-Apr-15 12:43N 34°03' E 132°26'313.9
2018-Apr-15 12:30N 34°06' E 132°23'713.6
2018-Apr-15 12:00N 34°12' E 132°20'713.8
2018-Apr-15 11:31N 34°19' E 132°22'5 0.7
2018-Apr-15 04:11N 34°21' E 132°28'1 3.4
2018-Apr-15 03:56N 34°20' E 132°28'3 7.8
2018-Apr-15 03:30N 34°20' E 132°24'3 4.4
2018-Apr-15 02:53N 34°19' E 132°21'0 0.0
2018-Apr-15 02:29N 34°19' E 132°21'0 0.0
2018-Apr-15 01:59N 34°19' E 132°21'0 0.0
2018-Apr-15 01:29N 34°19' E 132°21'0 0.0
2018-Apr-15 00:59N 34°19' E 132°21'0 0.0
2018-Apr-15 00:29N 34°19' E 132°21'0 0.0
2018-Apr-14 23:56N 34°19' E 132°21'0 0.0
2018-Apr-14 23:26N 34°19' E 132°21'0 0.0
2018-Apr-14 22:59N 34°19' E 132°21'0 0.0
2018-Apr-14 22:29N 34°19' E 132°21'0 0.0
2018-Apr-14 21:59N 34°19' E 132°21'0 0.0
2018-Apr-14 21:29N 34°19' E 132°21'0 0.0
2018-Apr-14 20:59N 34°19' E 132°21'0 0.0
2018-Apr-14 20:29N 34°19' E 132°21'0 0.0
2018-Apr-14 19:59N 34°19' E 132°21'0 0.9
2018-Apr-14 19:30N 34°19' E 132°21'4 7.0
2018-Apr-14 19:00N 34°15' E 132°21'510.7
2018-Apr-14 18:30N 34°10' E 132°21'612.6
2018-Apr-14 17:59N 34°05' E 132°25'611.6
2018-Apr-14 17:29N 34°01' E 132°31'7 9.1
2018-Apr-14 16:46N 33°55' E 132°35'3 9.7
2018-Apr-14 16:30N 33°53' E 132°33'611.4
2018-Apr-14 15:59N 33°49' E 132°27'3111.7
2018-Apr-14 13:23N 33°44' E 131°51'513.4
2018-Apr-14 12:59N 33°45' E 131°45'813.6
2018-Apr-14 12:24N 33°47' E 131°36'513.6
2018-Apr-14 12:00N 33°48' E 131°29'713.1
2018-Apr-14 11:30N 33°49' E 131°22'713.3
2018-Apr-14 11:00N 33°51' E 131°14'613.0
2018-Apr-14 10:30N 33°54' E 131°07'713.1
2018-Apr-14 10:00N 33°58' E 131°01'3 6.7
2018-Apr-14 09:30N 33°57' E 130°57'0 0.0
2018-Apr-14 09:00N 33°57' E 130°57'0 0.0
2018-Apr-14 08:30N 33°57' E 130°57'0 0.0
2018-Apr-14 08:00N 33°57' E 130°57'0 0.0
2018-Apr-14 07:30N 33°57' E 130°57'0 0.0
2018-Apr-14 07:00N 33°57' E 130°57'0 0.0
2018-Apr-14 06:30N 33°57' E 130°57'0 0.0
2018-Apr-14 06:00N 33°57' E 130°57'0 0.0
2018-Apr-14 05:30N 33°57' E 130°57'0 0.0
2018-Apr-14 05:00N 33°57' E 130°57'0 0.0
2018-Apr-14 04:30N 33°57' E 130°57'0 0.0
2018-Apr-14 04:00N 33°57' E 130°57'0 0.0
2018-Apr-14 03:30N 33°57' E 130°57'0 0.0
2018-Apr-14 03:00N 33°57' E 130°57'0 0.0
2018-Apr-14 02:30N 33°57' E 130°57'0 0.0
2018-Apr-14 01:57N 33°57' E 130°57'0 0.0
2018-Apr-14 01:27N 33°57' E 130°57'0 0.0
2018-Apr-14 01:00N 33°57' E 130°57'0 0.0
2018-Apr-14 00:30N 33°57' E 130°57'0 0.0
2018-Apr-14 00:00N 33°57' E 130°57'0 0.0
2018-Apr-13 23:30N 33°57' E 130°57'0 0.0
2018-Apr-13 23:00N 33°57' E 130°57'0 0.0
2018-Apr-13 22:30N 33°57' E 130°57'0 0.0
2018-Apr-13 22:01N 33°57' E 130°57'1 1.3
2018-Apr-13 21:31N 33°56' E 130°57'3 6.1
2018-Apr-13 21:01N 33°55' E 130°53'5 9.8
2018-Apr-13 20:30N 33°60' E 130°52'4 8.4
2018-Apr-13 20:01N 34°03' E 130°49'612.0
2018-Apr-13 19:30N 34°04' E 130°42'611.8
2018-Apr-13 19:01N 34°04' E 130°35'611.6
2018-Apr-13 18:30N 34°03' E 130°28'611.5
2018-Apr-13 18:00N 34°02' E 130°21'611.6
2018-Apr-13 17:31N 34°01' E 130°14'1211.5
2018-Apr-13 16:30N 33°60' E 130°00'611.7
2018-Apr-13 16:00N 33°59' E 129°53'611.7
2018-Apr-13 15:31N 33°57' E 129°47'611.7
2018-Apr-13 15:00N 33°56' E 129°40'611.4
2018-Apr-13 14:27N 33°52' E 129°34'612.0
2018-Apr-13 13:59N 33°47' E 129°31'  
Track history (hours):
 
Tides and Currents Weather Stations Pressure Air Temp Water Temp Dewpoint Dewpoint Depression Visibility Wind Speed Wind Dir Waves Ship Positions

Oceanic Odyssey

Last reported at 2018-Apr-21 12:35 UTC. Time now 2018-May-21 15:18 UTC.
Position N 33°60' E 130°03'.
Warning: this ship's position is 30 days out of date.

Length 103 m; draft 4.5 m.

Type: Passenger vessel. MMSI: 309913000.

Date/timePositionNaut miles runAvg speedWind from/ knotsBaromVisibWave heightAir tempDewpointWater temp
2018-Apr-21 12:35N 33°60' E 130°03'113.4
2018-Apr-21 12:29N 33°60' E 130°05'613.2
2018-Apr-21 12:00N 34°01' E 130°12'713.3
2018-Apr-21 11:30N 34°02' E 130°20'713.4
2018-Apr-21 11:00N 34°03' E 130°28'613.0
2018-Apr-21 10:30N 34°04' E 130°36'612.6
2018-Apr-21 10:00N 34°04' E 130°44'612.4
2018-Apr-21 09:30N 34°02' E 130°51'5 9.8
2018-Apr-21 09:00N 33°57' E 130°52'4 7.4
2018-Apr-21 08:30N 33°55' E 130°56'2 4.5
2018-Apr-21 07:58N 33°57' E 130°57'0 0.0
2018-Apr-21 07:28N 33°57' E 130°57'0 0.0
2018-Apr-21 06:58N 33°57' E 130°57'0 0.0
2018-Apr-21 06:28N 33°57' E 130°57'0 0.0
2018-Apr-21 05:58N 33°57' E 130°57'0 0.0
2018-Apr-21 05:28N 33°57' E 130°57'0 0.0
2018-Apr-21 04:58N 33°57' E 130°57'0 0.0
2018-Apr-21 04:28N 33°57' E 130°57'0 0.0
2018-Apr-21 03:58N 33°57' E 130°57'0 0.0
2018-Apr-21 03:28N 33°57' E 130°57'0 0.0
2018-Apr-21 02:58N 33°57' E 130°57'0 0.0
2018-Apr-21 02:28N 33°57' E 130°57'0 0.0
2018-Apr-21 01:58N 33°57' E 130°57'0 0.0
2018-Apr-21 01:28N 33°57' E 130°57'0 0.0
2018-Apr-21 00:58N 33°57' E 130°57'0 0.0
2018-Apr-21 00:28N 33°57' E 130°57'0 0.0
2018-Apr-20 23:58N 33°57' E 130°57'0 0.0
2018-Apr-20 23:28N 33°57' E 130°57'0 0.0
2018-Apr-20 23:00N 33°57' E 130°57'2 4.0
2018-Apr-20 22:30N 33°58' E 130°59'4 8.6
2018-Apr-20 22:00N 33°57' E 131°03'4 7.6
2018-Apr-20 21:30N 33°55' E 131°07'4 8.9
2018-Apr-20 21:00N 33°52' E 131°12'4 8.9
2018-Apr-20 20:30N 33°51' E 131°17'4 9.0
2018-Apr-20 20:00N 33°50' E 131°22'4 8.8
2018-Apr-20 19:30N 33°49' E 131°27'4 8.8
2018-Apr-20 19:00N 33°48' E 131°33'5 9.3
2018-Apr-20 18:30N 33°47' E 131°38'5 9.6
2018-Apr-20 17:59N 33°46' E 131°44'5 9.5
2018-Apr-20 17:30N 33°45' E 131°49'5 9.2
2018-Apr-20 17:00N 33°44' E 131°55'5 9.1
2018-Apr-20 16:30N 33°43' E 132°00'5 9.3
2018-Apr-20 16:00N 33°42' E 132°06'5 8.8
2018-Apr-20 15:29N 33°43' E 132°11'11 9.8
2018-Apr-20 14:19N 33°46' E 132°24'4 9.8
2018-Apr-20 13:55N 33°50' E 132°27'410.0
2018-Apr-20 13:30N 33°53' E 132°29'6 8.8
2018-Apr-20 12:52N 33°59' E 132°32'3 6.8
2018-Apr-20 12:22N 34°01' E 132°29'410.7
2018-Apr-20 12:00N 34°04' E 132°25'5 9.7
2018-Apr-20 11:28N 34°08' E 132°22'5 9.8
2018-Apr-20 11:00N 34°12' E 132°20'5 9.8
2018-Apr-20 10:30N 34°17' E 132°21'4 8.6
2018-Apr-20 10:00N 34°20' E 132°26'3 0.4
2018-Apr-20 04:06N 34°21' E 132°28'0 0.2
2018-Apr-20 03:47N 34°21' E 132°28'1 3.9
2018-Apr-20 03:30N 34°20' E 132°28'5 9.1
2018-Apr-20 03:00N 34°19' E 132°23'1 2.2
2018-Apr-20 02:28N 34°19' E 132°21'0 0.0
2018-Apr-20 01:58N 34°19' E 132°21'0 0.0
2018-Apr-20 01:25N 34°19' E 132°21'0 0.0
2018-Apr-20 00:58N 34°19' E 132°21'0 0.0
2018-Apr-20 00:28N 34°19' E 132°21'0 0.0
2018-Apr-19 23:58N 34°19' E 132°21'0 0.0
2018-Apr-19 23:25N 34°19' E 132°21'0 0.0
2018-Apr-19 22:58N 34°19' E 132°21'0 0.0
2018-Apr-19 22:28N 34°19' E 132°21'0 0.0
2018-Apr-19 21:58N 34°19' E 132°21'0 0.0
2018-Apr-19 21:28N 34°19' E 132°21'0 0.0
2018-Apr-19 20:58N 34°19' E 132°21'0 0.0
2018-Apr-19 20:28N 34°19' E 132°21'0 0.0
2018-Apr-19 19:58N 34°19' E 132°21'0 1.0
2018-Apr-19 19:31N 34°19' E 132°21'4 7.7
2018-Apr-19 19:00N 34°15' E 132°21'712.6
2018-Apr-19 18:29N 34°08' E 132°22'613.3
2018-Apr-19 18:00N 34°03' E 132°26'612.0
2018-Apr-19 17:28N 34°03' E 132°34'613.5
2018-Apr-19 17:00N 34°06' E 132°41'68 9.2
2018-Apr-19 09:38N 34°24' E 133°60'311.0
2018-Apr-19 09:22N 34°22' E 134°03'1 0.1
2018-Apr-18 20:29N 34°22' E 134°03'3 3.4
2018-Apr-18 19:43N 34°23' E 134°00'1 3.8
2018-Apr-18 19:29N 34°23' E 133°59'11 0.4
2018-Apr-17 18:45N 34°25' E 134°12'14 8.8
2018-Apr-17 17:06N 34°27' E 134°30'1 8.8
2018-Apr-17 17:00N 34°28' E 134°31'4 9.1
2018-Apr-17 16:31N 34°29' E 134°36'4 9.0
2018-Apr-17 16:01N 34°31' E 134°41'5 8.8
2018-Apr-17 15:27N 34°33' E 134°46'4 8.7
2018-Apr-17 15:00N 34°35' E 134°50'4 9.0
2018-Apr-17 14:31N 34°36' E 134°55'5 9.4
2018-Apr-17 14:00N 34°38' E 135°01'5 9.2
2018-Apr-17 13:30N 34°36' E 135°06'4 8.4
2018-Apr-17 13:00N 34°38' E 135°11'3 5.7
2018-Apr-17 12:30N 34°41' E 135°11'0 0.3
2018-Apr-17 12:00N 34°41' E 135°11'0 0.0
2018-Apr-17 11:30N 34°41' E 135°11'0 0.0
2018-Apr-17 11:00N 34°41' E 135°11'0 0.0
2018-Apr-17 10:30N 34°41' E 135°11'0 0.0
2018-Apr-17 10:00N 34°41' E 135°11'0 0.0
2018-Apr-17 09:30N 34°41' E 135°11'0 0.0
2018-Apr-17 09:00N 34°41' E 135°11'0 0.0
2018-Apr-17 08:30N 34°41' E 135°11'0 0.0
2018-Apr-17 08:00N 34°41' E 135°11'0 0.0
2018-Apr-17 07:30N 34°41' E 135°11'0 0.0
2018-Apr-17 07:00N 34°41' E 135°11'0 0.0
2018-Apr-17 06:30N 34°41' E 135°11'0 0.0
2018-Apr-17 06:00N 34°41' E 135°11'0 0.0
2018-Apr-17 05:30N 34°41' E 135°11'0 0.0
2018-Apr-17 05:00N 34°41' E 135°11'0 0.0
2018-Apr-17 04:30N 34°41' E 135°11'0 0.0
2018-Apr-17 04:00N 34°41' E 135°11'0 0.0
2018-Apr-17 03:30N 34°41' E 135°11'0 0.0
2018-Apr-17 03:00N 34°41' E 135°11'0 0.0
2018-Apr-17 02:30N 34°41' E 135°11'0 0.0
2018-Apr-17 02:00N 34°41' E 135°11'0 0.0
2018-Apr-17 01:30N 34°41' E 135°11'0 0.0
2018-Apr-17 01:00N 34°41' E 135°11'0 0.0
2018-Apr-17 00:30N 34°41' E 135°11'0 0.0
2018-Apr-17 00:00N 34°41' E 135°11'0 0.0
2018-Apr-16 23:30N 34°41' E 135°11'0 0.0
2018-Apr-16 23:00N 34°41' E 135°11'0 0.0
2018-Apr-16 22:30N 34°41' E 135°11'0 0.0
2018-Apr-16 22:00N 34°41' E 135°11'0 0.0
2018-Apr-16 21:30N 34°41' E 135°11'1 1.7
2018-Apr-16 21:00N 34°40' E 135°12'4 7.5
2018-Apr-16 20:30N 34°37' E 135°10'3 5.5
2018-Apr-16 20:00N 34°35' E 135°07'4 8.8
2018-Apr-16 19:31N 34°36' E 135°02'4 8.1
2018-Apr-16 19:00N 34°36' E 134°57'611.0
2018-Apr-16 18:30N 34°34' E 134°51'5 9.3
2018-Apr-16 18:00N 34°32' E 134°46'5 9.3
2018-Apr-16 17:30N 34°30' E 134°41'4 8.9
2018-Apr-16 17:00N 34°29' E 134°36'4 8.3
2018-Apr-16 16:30N 34°27' E 134°31'4 9.0
2018-Apr-16 16:00N 34°25' E 134°26'5 9.1
2018-Apr-16 15:30N 34°24' E 134°21'6 9.3
2018-Apr-16 14:51N 34°24' E 134°13'3 9.3
2018-Apr-16 14:30N 34°25' E 134°10'76 3.1
2018-Apr-15 13:43N 34°05' E 132°41'314.4
2018-Apr-15 13:29N 34°04' E 132°37'1012.6
2018-Apr-15 12:43N 34°03' E 132°26'313.9
2018-Apr-15 12:30N 34°06' E 132°23'713.6
2018-Apr-15 12:00N 34°12' E 132°20'713.8
2018-Apr-15 11:31N 34°19' E 132°22'5 0.7
2018-Apr-15 04:11N 34°21' E 132°28'1 3.4
2018-Apr-15 03:56N 34°20' E 132°28'3 7.8
2018-Apr-15 03:30N 34°20' E 132°24'3 4.4
2018-Apr-15 02:53N 34°19' E 132°21'0 0.0
2018-Apr-15 02:29N 34°19' E 132°21'0 0.0
2018-Apr-15 01:59N 34°19' E 132°21'0 0.0
2018-Apr-15 01:29N 34°19' E 132°21'0 0.0
2018-Apr-15 00:59N 34°19' E 132°21'0 0.0
2018-Apr-15 00:29N 34°19' E 132°21'0 0.0
2018-Apr-14 23:56N 34°19' E 132°21'0 0.0
2018-Apr-14 23:26N 34°19' E 132°21'0 0.0
2018-Apr-14 22:59N 34°19' E 132°21'0 0.0
2018-Apr-14 22:29N 34°19' E 132°21'0 0.0
2018-Apr-14 21:59N 34°19' E 132°21'0 0.0
2018-Apr-14 21:29N 34°19' E 132°21'0 0.0
2018-Apr-14 20:59N 34°19' E 132°21'0 0.0
2018-Apr-14 20:29N 34°19' E 132°21'0 0.0
2018-Apr-14 19:59N 34°19' E 132°21'0 0.9
2018-Apr-14 19:30N 34°19' E 132°21'4 7.0
2018-Apr-14 19:00N 34°15' E 132°21'510.7
2018-Apr-14 18:30N 34°10' E 132°21'612.6
2018-Apr-14 17:59N 34°05' E 132°25'611.6
2018-Apr-14 17:29N 34°01' E 132°31'7 9.1
2018-Apr-14 16:46N 33°55' E 132°35'3 9.7
2018-Apr-14 16:30N 33°53' E 132°33'611.4
2018-Apr-14 15:59N 33°49' E 132°27'3111.7
2018-Apr-14 13:23N 33°44' E 131°51'513.4
2018-Apr-14 12:59N 33°45' E 131°45'813.6
2018-Apr-14 12:24N 33°47' E 131°36'513.6
2018-Apr-14 12:00N 33°48' E 131°29'713.1
2018-Apr-14 11:30N 33°49' E 131°22'713.3
2018-Apr-14 11:00N 33°51' E 131°14'613.0
2018-Apr-14 10:30N 33°54' E 131°07'713.1
2018-Apr-14 10:00N 33°58' E 131°01'3 6.7
2018-Apr-14 09:30N 33°57' E 130°57'0 0.0
2018-Apr-14 09:00N 33°57' E 130°57'0 0.0
2018-Apr-14 08:30N 33°57' E 130°57'0 0.0
2018-Apr-14 08:00N 33°57' E 130°57'0 0.0
2018-Apr-14 07:30N 33°57' E 130°57'0 0.0
2018-Apr-14 07:00N 33°57' E 130°57'0 0.0
2018-Apr-14 06:30N 33°57' E 130°57'0 0.0
2018-Apr-14 06:00N 33°57' E 130°57'0 0.0
2018-Apr-14 05:30N 33°57' E 130°57'0 0.0
2018-Apr-14 05:00N 33°57' E 130°57'0 0.0
2018-Apr-14 04:30N 33°57' E 130°57'0 0.0
2018-Apr-14 04:00N 33°57' E 130°57'0 0.0
2018-Apr-14 03:30N 33°57' E 130°57'0 0.0
2018-Apr-14 03:00N 33°57' E 130°57'0 0.0
2018-Apr-14 02:30N 33°57' E 130°57'0 0.0
2018-Apr-14 01:57N 33°57' E 130°57'0 0.0
2018-Apr-14 01:27N 33°57' E 130°57'0 0.0
2018-Apr-14 01:00N 33°57' E 130°57'0 0.0
2018-Apr-14 00:30N 33°57' E 130°57'0 0.0
2018-Apr-14 00:00N 33°57' E 130°57'0 0.0
2018-Apr-13 23:30N 33°57' E 130°57'0 0.0
2018-Apr-13 23:00N 33°57' E 130°57'0 0.0
2018-Apr-13 22:30N 33°57' E 130°57'0 0.0
2018-Apr-13 22:01N 33°57' E 130°57'1 1.3
2018-Apr-13 21:31N 33°56' E 130°57'3 6.1
2018-Apr-13 21:01N 33°55' E 130°53'5 9.8
2018-Apr-13 20:30N 33°60' E 130°52'4 8.4
2018-Apr-13 20:01N 34°03' E 130°49'612.0
2018-Apr-13 19:30N 34°04' E 130°42'611.8
2018-Apr-13 19:01N 34°04' E 130°35'611.6
2018-Apr-13 18:30N 34°03' E 130°28'611.5
2018-Apr-13 18:00N 34°02' E 130°21'611.6
2018-Apr-13 17:31N 34°01' E 130°14'1211.5
2018-Apr-13 16:30N 33°60' E 130°00'611.7
2018-Apr-13 16:00N 33°59' E 129°53'611.7
2018-Apr-13 15:31N 33°57' E 129°47'611.7
2018-Apr-13 15:00N 33°56' E 129°40'611.4
2018-Apr-13 14:27N 33°52' E 129°34'612.0
2018-Apr-13 13:59N 33°47' E 129°31'  

Dump ship's entire track history